sensor_id;sensor_type;location;lat;lon;timestamp;temperature;humidity
20481;DHT22;10399;50.754;3.366;2023-09-19T00:00:44;17.90;99.90
20481;DHT22;10399;50.754;3.366;2023-09-19T00:03:14;18.00;99.90
20481;DHT22;10399;50.754;3.366;2023-09-19T00:05:42;17.80;99.90
20481;DHT22;10399;50.754;3.366;2023-09-19T00:08:13;18.00;99.90
20481;DHT22;10399;50.754;3.366;2023-09-19T00:10:43;18.00;99.90
20481;DHT22;10399;50.754;3.366;2023-09-19T00:13:10;18.00;99.90
20481;DHT22;10399;50.754;3.366;2023-09-19T00:15:44;17.80;99.90
20481;DHT22;10399;50.754;3.366;2023-09-19T00:18:19;17.70;99.90
20481;DHT22;10399;50.754;3.366;2023-09-19T00:20:48;17.70;99.90
20481;DHT22;10399;50.754;3.366;2023-09-19T00:23:17;17.70;99.90
20481;DHT22;10399;50.754;3.366;2023-09-19T00:25:46;17.60;99.90
20481;DHT22;10399;50.754;3.366;2023-09-19T00:28:13;17.50;99.90
20481;DHT22;10399;50.754;3.366;2023-09-19T00:30:43;17.70;99.90
20481;DHT22;10399;50.754;3.366;2023-09-19T00:33:11;17.70;99.90
20481;DHT22;10399;50.754;3.366;2023-09-19T00:35:51;17.70;99.90
20481;DHT22;10399;50.754;3.366;2023-09-19T00:38:19;17.70;99.90
20481;DHT22;10399;50.754;3.366;2023-09-19T00:40:49;17.50;99.90
20481;DHT22;10399;50.754;3.366;2023-09-19T00:43:18;17.60;99.90
20481;DHT22;10399;50.754;3.366;2023-09-19T00:45:47;17.60;99.90
20481;DHT22;10399;50.754;3.366;2023-09-19T00:48:15;17.50;99.90
20481;DHT22;10399;50.754;3.366;2023-09-19T00:50:46;17.50;99.90
20481;DHT22;10399;50.754;3.366;2023-09-19T00:53:17;17.20;99.90
20481;DHT22;10399;50.754;3.366;2023-09-19T00:55:46;17.20;99.90
20481;DHT22;10399;50.754;3.366;2023-09-19T00:58:14;17.40;99.90
20481;DHT22;10399;50.754;3.366;2023-09-19T01:00:41;17.30;99.90
20481;DHT22;10399;50.754;3.366;2023-09-19T01:03:11;17.10;99.90
20481;DHT22;10399;50.754;3.366;2023-09-19T01:05:40;17.10;99.90
20481;DHT22;10399;50.754;3.366;2023-09-19T01:08:07;17.10;99.90
20481;DHT22;10399;50.754;3.366;2023-09-19T01:10:35;17.10;99.90
20481;DHT22;10399;50.754;3.366;2023-09-19T01:13:25;17.20;99.90
20481;DHT22;10399;50.754;3.366;2023-09-19T01:21:32;17.40;99.90
20481;DHT22;10399;50.754;3.366;2023-09-19T01:29:49;17.10;99.90
20481;DHT22;10399;50.754;3.366;2023-09-19T01:32:22;17.20;99.90
20481;DHT22;10399;50.754;3.366;2023-09-19T01:34:56;17.20;99.90
20481;DHT22;10399;50.754;3.366;2023-09-19T01:37:26;17.10;99.90
20481;DHT22;10399;50.754;3.366;2023-09-19T01:40:00;17.00;99.90
20481;DHT22;10399;50.754;3.366;2023-09-19T01:45:52;17.00;99.90
20481;DHT22;10399;50.754;3.366;2023-09-19T01:48:38;17.10;99.90
20481;DHT22;10399;50.754;3.366;2023-09-19T01:51:10;17.00;99.90
20481;DHT22;10399;50.754;3.366;2023-09-19T01:54:00;17.00;99.90
20481;DHT22;10399;50.754;3.366;2023-09-19T01:56:34;16.80;99.90
20481;DHT22;10399;50.754;3.366;2023-09-19T01:59:09;16.70;99.90
20481;DHT22;10399;50.754;3.366;2023-09-19T02:01:37;16.50;99.90
20481;DHT22;10399;50.754;3.366;2023-09-19T02:04:05;16.50;99.90
20481;DHT22;10399;50.754;3.366;2023-09-19T02:06:32;16.40;99.90
20481;DHT22;10399;50.754;3.366;2023-09-19T02:09:01;16.50;99.90
20481;DHT22;10399;50.754;3.366;2023-09-19T02:11:29;16.40;99.90
20481;DHT22;10399;50.754;3.366;2023-09-19T02:13:56;16.30;99.90
20481;DHT22;10399;50.754;3.366;2023-09-19T02:16:23;16.30;99.90
20481;DHT22;10399;50.754;3.366;2023-09-19T02:18:51;16.20;99.90
20481;DHT22;10399;50.754;3.366;2023-09-19T02:21:18;16.30;99.90
20481;DHT22;10399;50.754;3.366;2023-09-19T02:23:45;16.30;99.90
20481;DHT22;10399;50.754;3.366;2023-09-19T02:26:14;16.10;99.90
20481;DHT22;10399;50.754;3.366;2023-09-19T02:28:41;16.10;99.90
20481;DHT22;10399;50.754;3.366;2023-09-19T02:31:09;15.90;99.90
20481;DHT22;10399;50.754;3.366;2023-09-19T02:33:36;16.00;99.90
20481;DHT22;10399;50.754;3.366;2023-09-19T02:36:04;16.10;99.90
20481;DHT22;10399;50.754;3.366;2023-09-19T02:38:32;16.00;99.90
20481;DHT22;10399;50.754;3.366;2023-09-19T02:40:59;15.70;99.90
20481;DHT22;10399;50.754;3.366;2023-09-19T02:43:27;15.70;99.90
20481;DHT22;10399;50.754;3.366;2023-09-19T02:45:54;16.00;99.90
20481;DHT22;10399;50.754;3.366;2023-09-19T02:48:21;16.00;99.90
20481;DHT22;10399;50.754;3.366;2023-09-19T02:50:52;16.10;99.90
20481;DHT22;10399;50.754;3.366;2023-09-19T02:53:19;16.20;99.90
20481;DHT22;10399;50.754;3.366;2023-09-19T02:55:49;16.10;99.90
20481;DHT22;10399;50.754;3.366;2023-09-19T02:58:16;16.20;99.90
20481;DHT22;10399;50.754;3.366;2023-09-19T03:00:45;16.40;99.90
20481;DHT22;10399;50.754;3.366;2023-09-19T03:03:17;16.40;99.90
20481;DHT22;10399;50.754;3.366;2023-09-19T03:05:44;16.40;99.90
20481;DHT22;10399;50.754;3.366;2023-09-19T03:08:14;16.40;99.90
20481;DHT22;10399;50.754;3.366;2023-09-19T03:10:41;16.30;99.90
20481;DHT22;10399;50.754;3.366;2023-09-19T03:13:08;16.40;99.90
20481;DHT22;10399;50.754;3.366;2023-09-19T03:15:36;15.90;99.90
20481;DHT22;10399;50.754;3.366;2023-09-19T03:18:07;15.90;99.90
20481;DHT22;10399;50.754;3.366;2023-09-19T03:20:34;15.90;99.90
20481;DHT22;10399;50.754;3.366;2023-09-19T03:23:01;16.00;99.90
20481;DHT22;10399;50.754;3.366;2023-09-19T03:25:29;16.00;99.90
20481;DHT22;10399;50.754;3.366;2023-09-19T03:27:57;15.90;99.90
20481;DHT22;10399;50.754;3.366;2023-09-19T03:30:27;16.10;99.90
20481;DHT22;10399;50.754;3.366;2023-09-19T03:32:54;16.10;99.90
20481;DHT22;10399;50.754;3.366;2023-09-19T03:35:22;16.10;99.90
20481;DHT22;10399;50.754;3.366;2023-09-19T03:37:49;16.00;99.90
20481;DHT22;10399;50.754;3.366;2023-09-19T03:40:16;15.90;99.90
20481;DHT22;10399;50.754;3.366;2023-09-19T03:42:43;15.90;99.90
20481;DHT22;10399;50.754;3.366;2023-09-19T03:45:10;16.10;99.90
20481;DHT22;10399;50.754;3.366;2023-09-19T03:47:42;16.20;99.90
20481;DHT22;10399;50.754;3.366;2023-09-19T03:50:10;16.20;99.90
20481;DHT22;10399;50.754;3.366;2023-09-19T03:52:38;16.10;99.90
20481;DHT22;10399;50.754;3.366;2023-09-19T03:55:05;16.10;99.90
20481;DHT22;10399;50.754;3.366;2023-09-19T03:57:32;16.10;99.90
20481;DHT22;10399;50.754;3.366;2023-09-19T03:59:59;16.20;99.90
20481;DHT22;10399;50.754;3.366;2023-09-19T04:02:26;16.10;99.90
20481;DHT22;10399;50.754;3.366;2023-09-19T04:04:59;15.80;99.90
20481;DHT22;10399;50.754;3.366;2023-09-19T04:07:27;15.90;99.90
20481;DHT22;10399;50.754;3.366;2023-09-19T04:09:56;16.00;99.90
20481;DHT22;10399;50.754;3.366;2023-09-19T04:12:23;15.80;99.90
20481;DHT22;10399;50.754;3.366;2023-09-19T04:14:50;15.70;99.90
20481;DHT22;10399;50.754;3.366;2023-09-19T04:17:18;15.80;99.90
20481;DHT22;10399;50.754;3.366;2023-09-19T04:19:46;15.80;99.90
20481;DHT22;10399;50.754;3.366;2023-09-19T04:22:13;15.70;99.90
20481;DHT22;10399;50.754;3.366;2023-09-19T04:24:40;15.70;99.90
20481;DHT22;10399;50.754;3.366;2023-09-19T04:27:07;15.80;99.90
20481;DHT22;10399;50.754;3.366;2023-09-19T04:29:36;15.70;99.90
20481;DHT22;10399;50.754;3.366;2023-09-19T04:32:04;15.80;99.90
20481;DHT22;10399;50.754;3.366;2023-09-19T04:34:33;15.70;99.90
20481;DHT22;10399;50.754;3.366;2023-09-19T04:37:01;15.90;99.90
20481;DHT22;10399;50.754;3.366;2023-09-19T04:39:28;16.10;99.90
20481;DHT22;10399;50.754;3.366;2023-09-19T04:41:55;16.10;99.90
20481;DHT22;10399;50.754;3.366;2023-09-19T04:44:23;16.10;99.90
20481;DHT22;10399;50.754;3.366;2023-09-19T04:46:50;15.90;99.90
20481;DHT22;10399;50.754;3.366;2023-09-19T04:49:18;15.90;99.90
20481;DHT22;10399;50.754;3.366;2023-09-19T04:51:45;15.90;99.90
20481;DHT22;10399;50.754;3.366;2023-09-19T04:54:14;15.70;99.90
20481;DHT22;10399;50.754;3.366;2023-09-19T04:56:41;15.80;99.90
20481;DHT22;10399;50.754;3.366;2023-09-19T04:59:08;15.80;99.90
20481;DHT22;10399;50.754;3.366;2023-09-19T05:01:37;15.80;99.90
20481;DHT22;10399;50.754;3.366;2023-09-19T05:04:05;15.60;99.90
20481;DHT22;10399;50.754;3.366;2023-09-19T05:06:32;15.70;99.90
20481;DHT22;10399;50.754;3.366;2023-09-19T05:09:00;15.70;99.90
20481;DHT22;10399;50.754;3.366;2023-09-19T05:11:27;15.60;99.90
20481;DHT22;10399;50.754;3.366;2023-09-19T05:13:57;15.50;99.90
20481;DHT22;10399;50.754;3.366;2023-09-19T05:16:29;15.60;99.90
20481;DHT22;10399;50.754;3.366;2023-09-19T05:18:57;15.60;99.90
20481;DHT22;10399;50.754;3.366;2023-09-19T05:21:25;15.70;99.90
20481;DHT22;10399;50.754;3.366;2023-09-19T05:23:55;15.90;99.90
20481;DHT22;10399;50.754;3.366;2023-09-19T05:26:24;15.70;99.90
20481;DHT22;10399;50.754;3.366;2023-09-19T05:28:51;15.70;99.90
20481;DHT22;10399;50.754;3.366;2023-09-19T05:31:20;15.60;99.90
20481;DHT22;10399;50.754;3.366;2023-09-19T05:33:47;15.60;99.90
20481;DHT22;10399;50.754;3.366;2023-09-19T05:36:14;15.70;99.90
20481;DHT22;10399;50.754;3.366;2023-09-19T05:38:43;15.80;99.90
20481;DHT22;10399;50.754;3.366;2023-09-19T05:41:11;15.60;99.90
20481;DHT22;10399;50.754;3.366;2023-09-19T05:43:40;15.70;99.90
20481;DHT22;10399;50.754;3.366;2023-09-19T05:46:08;15.70;99.90
20481;DHT22;10399;50.754;3.366;2023-09-19T05:48:35;15.50;99.90
20481;DHT22;10399;50.754;3.366;2023-09-19T05:51:02;15.60;99.90
20481;DHT22;10399;50.754;3.366;2023-09-19T05:53:30;15.60;99.90
20481;DHT22;10399;50.754;3.366;2023-09-19T05:55:57;15.60;99.90
20481;DHT22;10399;50.754;3.366;2023-09-19T05:58:24;15.60;99.90
20481;DHT22;10399;50.754;3.366;2023-09-19T06:00:51;15.70;99.90
20481;DHT22;10399;50.754;3.366;2023-09-19T06:03:18;15.80;99.90
20481;DHT22;10399;50.754;3.366;2023-09-19T06:05:47;15.70;99.90
20481;DHT22;10399;50.754;3.366;2023-09-19T06:08:16;15.60;99.90
20481;DHT22;10399;50.754;3.366;2023-09-19T06:10:43;15.80;99.90
20481;DHT22;10399;50.754;3.366;2023-09-19T06:13:11;15.70;99.90
20481;DHT22;10399;50.754;3.366;2023-09-19T06:15:38;15.70;99.90
20481;DHT22;10399;50.754;3.366;2023-09-19T06:18:11;15.90;99.90
20481;DHT22;10399;50.754;3.366;2023-09-19T06:20:40;16.00;99.90
20481;DHT22;10399;50.754;3.366;2023-09-19T06:23:12;16.10;99.90
20481;DHT22;10399;50.754;3.366;2023-09-19T06:25:39;16.10;99.90
20481;DHT22;10399;50.754;3.366;2023-09-19T06:28:07;16.10;99.90
20481;DHT22;10399;50.754;3.366;2023-09-19T06:30:38;16.00;99.90
20481;DHT22;10399;50.754;3.366;2023-09-19T06:33:08;16.10;99.90
20481;DHT22;10399;50.754;3.366;2023-09-19T06:35:38;15.90;99.90
20481;DHT22;10399;50.754;3.366;2023-09-19T06:38:05;16.00;99.90
20481;DHT22;10399;50.754;3.366;2023-09-19T06:40:35;16.10;99.90
20481;DHT22;10399;50.754;3.366;2023-09-19T06:43:02;16.20;99.90
20481;DHT22;10399;50.754;3.366;2023-09-19T06:45:30;16.20;99.90
20481;DHT22;10399;50.754;3.366;2023-09-19T06:47:58;16.30;99.90
20481;DHT22;10399;50.754;3.366;2023-09-19T06:50:27;16.20;99.90
20481;DHT22;10399;50.754;3.366;2023-09-19T06:52:55;16.30;99.90
20481;DHT22;10399;50.754;3.366;2023-09-19T06:55:25;16.40;99.90
20481;DHT22;10399;50.754;3.366;2023-09-19T06:57:55;16.50;99.90
20481;DHT22;10399;50.754;3.366;2023-09-19T07:00:22;16.60;99.90
20481;DHT22;10399;50.754;3.366;2023-09-19T07:03:02;16.70;99.90
20481;DHT22;10399;50.754;3.366;2023-09-19T07:05:32;16.70;99.90
20481;DHT22;10399;50.754;3.366;2023-09-19T07:07:59;16.70;99.90
20481;DHT22;10399;50.754;3.366;2023-09-19T07:10:28;16.70;99.90
20481;DHT22;10399;50.754;3.366;2023-09-19T07:13:00;16.60;99.90
20481;DHT22;10399;50.754;3.366;2023-09-19T07:15:28;16.60;99.90
20481;DHT22;10399;50.754;3.366;2023-09-19T07:17:55;16.60;99.90
20481;DHT22;10399;50.754;3.366;2023-09-19T07:20:24;16.60;99.90
20481;DHT22;10399;50.754;3.366;2023-09-19T07:22:59;16.70;99.90
20481;DHT22;10399;50.754;3.366;2023-09-19T07:25:30;16.80;99.90
20481;DHT22;10399;50.754;3.366;2023-09-19T07:27:58;16.90;99.90
20481;DHT22;10399;50.754;3.366;2023-09-19T07:30:28;16.70;99.90
20481;DHT22;10399;50.754;3.366;2023-09-19T07:32:56;16.90;99.90
20481;DHT22;10399;50.754;3.366;2023-09-19T07:35:23;17.00;99.90
20481;DHT22;10399;50.754;3.366;2023-09-19T07:37:50;17.00;99.90
20481;DHT22;10399;50.754;3.366;2023-09-19T07:40:19;17.10;99.90
20481;DHT22;10399;50.754;3.366;2023-09-19T07:42:48;17.10;99.90
20481;DHT22;10399;50.754;3.366;2023-09-19T07:45:16;17.20;99.90
20481;DHT22;10399;50.754;3.366;2023-09-19T07:47:48;17.20;99.90
20481;DHT22;10399;50.754;3.366;2023-09-19T07:50:17;17.30;99.90
20481;DHT22;10399;50.754;3.366;2023-09-19T07:52:48;17.40;99.90
20481;DHT22;10399;50.754;3.366;2023-09-19T07:55:20;17.50;99.90
20481;DHT22;10399;50.754;3.366;2023-09-19T07:57:52;17.50;99.90
20481;DHT22;10399;50.754;3.366;2023-09-19T08:00:20;17.40;99.90
20481;DHT22;10399;50.754;3.366;2023-09-19T08:02:47;17.70;99.90
20481;DHT22;10399;50.754;3.366;2023-09-19T08:05:24;17.80;99.90
20481;DHT22;10399;50.754;3.366;2023-09-19T08:07:53;17.90;99.90
20481;DHT22;10399;50.754;3.366;2023-09-19T08:10:23;17.60;99.90
20481;DHT22;10399;50.754;3.366;2023-09-19T08:12:54;17.60;99.90
20481;DHT22;10399;50.754;3.366;2023-09-19T08:15:24;17.70;99.90
20481;DHT22;10399;50.754;3.366;2023-09-19T08:17:51;17.80;99.90
20481;DHT22;10399;50.754;3.366;2023-09-19T08:20:19;17.90;99.90
20481;DHT22;10399;50.754;3.366;2023-09-19T08:22:51;18.00;99.90
20481;DHT22;10399;50.754;3.366;2023-09-19T08:25:24;18.10;99.90
20481;DHT22;10399;50.754;3.366;2023-09-19T08:27:55;18.30;99.90
20481;DHT22;10399;50.754;3.366;2023-09-19T08:30:25;18.40;99.90
20481;DHT22;10399;50.754;3.366;2023-09-19T08:32:58;18.30;99.90
20481;DHT22;10399;50.754;3.366;2023-09-19T08:35:28;18.30;99.90
20481;DHT22;10399;50.754;3.366;2023-09-19T08:37:55;18.30;99.90
20481;DHT22;10399;50.754;3.366;2023-09-19T08:40:23;18.30;99.90
20481;DHT22;10399;50.754;3.366;2023-09-19T08:42:53;18.30;99.90
20481;DHT22;10399;50.754;3.366;2023-09-19T08:45:22;18.50;99.90
20481;DHT22;10399;50.754;3.366;2023-09-19T08:48:00;18.80;99.90
20481;DHT22;10399;50.754;3.366;2023-09-19T08:50:30;18.70;99.90
20481;DHT22;10399;50.754;3.366;2023-09-19T08:53:01;18.70;99.90
20481;DHT22;10399;50.754;3.366;2023-09-19T08:55:31;18.90;99.90
20481;DHT22;10399;50.754;3.366;2023-09-19T08:58:03;18.80;99.90
20481;DHT22;10399;50.754;3.366;2023-09-19T09:00:30;18.90;99.90
20481;DHT22;10399;50.754;3.366;2023-09-19T09:02:58;18.80;99.90
20481;DHT22;10399;50.754;3.366;2023-09-19T09:05:27;18.90;99.90
20481;DHT22;10399;50.754;3.366;2023-09-19T09:07:55;18.90;99.90
20481;DHT22;10399;50.754;3.366;2023-09-19T09:10:23;19.20;99.90
20481;DHT22;10399;50.754;3.366;2023-09-19T09:12:52;19.10;99.90
20481;DHT22;10399;50.754;3.366;2023-09-19T09:15:23;19.20;99.90
20481;DHT22;10399;50.754;3.366;2023-09-19T09:17:51;19.30;99.90
20481;DHT22;10399;50.754;3.366;2023-09-19T09:20:21;19.30;99.90
20481;DHT22;10399;50.754;3.366;2023-09-19T09:22:55;19.40;99.90
20481;DHT22;10399;50.754;3.366;2023-09-19T09:25:49;19.40;99.90
20481;DHT22;10399;50.754;3.366;2023-09-19T09:28:25;19.60;99.90
20481;DHT22;10399;50.754;3.366;2023-09-19T09:30:54;19.60;99.90
20481;DHT22;10399;50.754;3.366;2023-09-19T09:33:22;19.50;99.90
20481;DHT22;10399;50.754;3.366;2023-09-19T09:35:58;19.40;99.90
20481;DHT22;10399;50.754;3.366;2023-09-19T09:38:42;19.30;99.90
20481;DHT22;10399;50.754;3.366;2023-09-19T09:41:10;19.60;99.90
20481;DHT22;10399;50.754;3.366;2023-09-19T09:43:42;19.70;99.90
20481;DHT22;10399;50.754;3.366;2023-09-19T09:46:18;19.80;99.90
20481;DHT22;10399;50.754;3.366;2023-09-19T09:49:01;20.00;99.90
20481;DHT22;10399;50.754;3.366;2023-09-19T09:51:51;20.00;99.90
20481;DHT22;10399;50.754;3.366;2023-09-19T09:54:30;20.30;99.90
20481;DHT22;10399;50.754;3.366;2023-09-19T09:57:11;20.30;99.90
20481;DHT22;10399;50.754;3.366;2023-09-19T10:02:30;20.10;99.90
20481;DHT22;10399;50.754;3.366;2023-09-19T10:05:23;20.20;99.90
20481;DHT22;10399;50.754;3.366;2023-09-19T10:07:55;20.30;99.90
20481;DHT22;10399;50.754;3.366;2023-09-19T10:10:32;20.30;99.90
20481;DHT22;10399;50.754;3.366;2023-09-19T10:13:06;20.50;99.90
20481;DHT22;10399;50.754;3.366;2023-09-19T10:15:35;20.80;99.90
20481;DHT22;10399;50.754;3.366;2023-09-19T10:18:07;21.10;99.90
20481;DHT22;10399;50.754;3.366;2023-09-19T10:20:46;21.30;99.90
20481;DHT22;10399;50.754;3.366;2023-09-19T10:23:15;21.40;99.90
20481;DHT22;10399;50.754;3.366;2023-09-19T10:25:49;21.70;99.90
20481;DHT22;10399;50.754;3.366;2023-09-19T10:28:18;21.70;99.90
20481;DHT22;10399;50.754;3.366;2023-09-19T10:30:51;21.90;99.90
20481;DHT22;10399;50.754;3.366;2023-09-19T10:33:21;21.60;99.90
20481;DHT22;10399;50.754;3.366;2023-09-19T10:35:50;21.60;99.90
20481;DHT22;10399;50.754;3.366;2023-09-19T10:38:24;21.50;99.90
20481;DHT22;10399;50.754;3.366;2023-09-19T10:40:56;21.50;99.90
20481;DHT22;10399;50.754;3.366;2023-09-19T10:43:32;21.60;99.90
20481;DHT22;10399;50.754;3.366;2023-09-19T10:46:03;21.80;99.90
20481;DHT22;10399;50.754;3.366;2023-09-19T10:48:34;21.80;99.90
20481;DHT22;10399;50.754;3.366;2023-09-19T10:51:08;22.00;99.90
20481;DHT22;10399;50.754;3.366;2023-09-19T10:53:52;22.40;99.90
20481;DHT22;10399;50.754;3.366;2023-09-19T10:56:27;22.10;99.90
20481;DHT22;10399;50.754;3.366;2023-09-19T10:59:09;21.70;99.90
20481;DHT22;10399;50.754;3.366;2023-09-19T11:01:56;21.60;99.90
20481;DHT22;10399;50.754;3.366;2023-09-19T11:07:12;21.80;99.90
20481;DHT22;10399;50.754;3.366;2023-09-19T11:15:08;21.60;99.90
20481;DHT22;10399;50.754;3.366;2023-09-19T11:17:38;21.90;99.90
20481;DHT22;10399;50.754;3.366;2023-09-19T11:30:40;22.50;99.90
20481;DHT22;10399;50.754;3.366;2023-09-19T11:36:09;21.70;99.90
20481;DHT22;10399;50.754;3.366;2023-09-19T11:49:26;21.30;99.90
20481;DHT22;10399;50.754;3.366;2023-09-19T11:51:57;21.20;99.90
20481;DHT22;10399;50.754;3.366;2023-09-19T11:54:28;21.20;99.90
20481;DHT22;10399;50.754;3.366;2023-09-19T11:57:00;21.00;99.90
20481;DHT22;10399;50.754;3.366;2023-09-19T11:59:29;21.00;99.90
20481;DHT22;10399;50.754;3.366;2023-09-19T12:02:00;21.10;99.90
20481;DHT22;10399;50.754;3.366;2023-09-19T12:04:41;21.10;99.90
20481;DHT22;10399;50.754;3.366;2023-09-19T12:07:16;21.10;99.90
20481;DHT22;10399;50.754;3.366;2023-09-19T12:10:16;21.10;99.90
20481;DHT22;10399;50.754;3.366;2023-09-19T12:12:47;21.10;99.90
20481;DHT22;10399;50.754;3.366;2023-09-19T12:15:25;21.20;99.90
20481;DHT22;10399;50.754;3.366;2023-09-19T12:18:01;21.10;99.90
20481;DHT22;10399;50.754;3.366;2023-09-19T12:20:44;21.00;99.90
20481;DHT22;10399;50.754;3.366;2023-09-19T12:23:16;21.20;99.90
20481;DHT22;10399;50.754;3.366;2023-09-19T12:25:44;21.30;99.90
20481;DHT22;10399;50.754;3.366;2023-09-19T12:28:20;21.40;99.90
20481;DHT22;10399;50.754;3.366;2023-09-19T12:30:50;21.30;99.90
20481;DHT22;10399;50.754;3.366;2023-09-19T12:33:19;21.20;99.90
20481;DHT22;10399;50.754;3.366;2023-09-19T12:35:53;21.30;99.90
20481;DHT22;10399;50.754;3.366;2023-09-19T12:40:52;21.10;99.90
20481;DHT22;10399;50.754;3.366;2023-09-19T12:43:19;21.10;99.90
20481;DHT22;10399;50.754;3.366;2023-09-19T12:45:47;21.20;99.90
20481;DHT22;10399;50.754;3.366;2023-09-19T12:48:25;21.30;99.90
20481;DHT22;10399;50.754;3.366;2023-09-19T12:51:10;21.40;99.90
20481;DHT22;10399;50.754;3.366;2023-09-19T12:53:41;21.40;99.90
20481;DHT22;10399;50.754;3.366;2023-09-19T12:56:14;21.30;99.90
20481;DHT22;10399;50.754;3.366;2023-09-19T13:01:17;21.70;99.90
20481;DHT22;10399;50.754;3.366;2023-09-19T13:03:45;21.60;99.90
20481;DHT22;10399;50.754;3.366;2023-09-19T13:06:13;21.40;99.90
20481;DHT22;10399;50.754;3.366;2023-09-19T13:08:44;21.50;99.90
20481;DHT22;10399;50.754;3.366;2023-09-19T13:11:17;21.40;99.90
20481;DHT22;10399;50.754;3.366;2023-09-19T13:13:51;21.50;99.90
20481;DHT22;10399;50.754;3.366;2023-09-19T13:16:22;21.70;99.90
20481;DHT22;10399;50.754;3.366;2023-09-19T13:18:55;21.30;99.90
20481;DHT22;10399;50.754;3.366;2023-09-19T13:21:29;21.20;99.90
20481;DHT22;10399;50.754;3.366;2023-09-19T13:24:22;21.40;99.90
20481;DHT22;10399;50.754;3.366;2023-09-19T13:26:53;21.30;99.90
20481;DHT22;10399;50.754;3.366;2023-09-19T13:29:20;21.30;99.90
20481;DHT22;10399;50.754;3.366;2023-09-19T13:34:15;21.70;99.90
20481;DHT22;10399;50.754;3.366;2023-09-19T13:36:45;21.60;99.90
20481;DHT22;10399;50.754;3.366;2023-09-19T13:39:12;21.60;99.90
20481;DHT22;10399;50.754;3.366;2023-09-19T13:41:47;21.50;99.90
20481;DHT22;10399;50.754;3.366;2023-09-19T13:44:15;21.30;99.90
20481;DHT22;10399;50.754;3.366;2023-09-19T13:46:44;21.40;99.90
20481;DHT22;10399;50.754;3.366;2023-09-19T13:49:13;21.40;99.90
20481;DHT22;10399;50.754;3.366;2023-09-19T13:51:40;21.30;99.90
20481;DHT22;10399;50.754;3.366;2023-09-19T13:54:11;21.30;99.90
20481;DHT22;10399;50.754;3.366;2023-09-19T13:56:41;21.20;99.90
20481;DHT22;10399;50.754;3.366;2023-09-19T13:59:08;21.20;99.90
20481;DHT22;10399;50.754;3.366;2023-09-19T14:01:35;21.20;99.90
20481;DHT22;10399;50.754;3.366;2023-09-19T14:04:02;21.10;99.90
20481;DHT22;10399;50.754;3.366;2023-09-19T14:06:30;21.10;99.90
20481;DHT22;10399;50.754;3.366;2023-09-19T14:08:57;21.20;99.90
20481;DHT22;10399;50.754;3.366;2023-09-19T14:11:24;21.20;99.90
20481;DHT22;10399;50.754;3.366;2023-09-19T14:13:53;21.20;99.90
20481;DHT22;10399;50.754;3.366;2023-09-19T14:16:23;21.20;99.90
20481;DHT22;10399;50.754;3.366;2023-09-19T14:18:51;21.10;99.90
20481;DHT22;10399;50.754;3.366;2023-09-19T14:21:19;21.00;99.90
20481;DHT22;10399;50.754;3.366;2023-09-19T14:23:46;21.10;99.90
20481;DHT22;10399;50.754;3.366;2023-09-19T14:26:13;21.20;99.90
20481;DHT22;10399;50.754;3.366;2023-09-19T14:28:41;21.30;99.90
20481;DHT22;10399;50.754;3.366;2023-09-19T14:31:09;21.30;99.90
20481;DHT22;10399;50.754;3.366;2023-09-19T14:33:37;21.20;99.90
20481;DHT22;10399;50.754;3.366;2023-09-19T14:36:09;21.10;99.90
20481;DHT22;10399;50.754;3.366;2023-09-19T14:38:38;21.10;99.90
20481;DHT22;10399;50.754;3.366;2023-09-19T14:41:06;21.30;99.90
20481;DHT22;10399;50.754;3.366;2023-09-19T14:43:33;21.40;99.90
20481;DHT22;10399;50.754;3.366;2023-09-19T14:46:07;21.50;99.90
20481;DHT22;10399;50.754;3.366;2023-09-19T14:48:34;21.40;99.90
20481;DHT22;10399;50.754;3.366;2023-09-19T14:51:02;21.30;99.90
20481;DHT22;10399;50.754;3.366;2023-09-19T14:53:31;21.30;99.90
20481;DHT22;10399;50.754;3.366;2023-09-19T14:56:02;21.30;99.90
20481;DHT22;10399;50.754;3.366;2023-09-19T14:58:31;21.20;99.90
20481;DHT22;10399;50.754;3.366;2023-09-19T15:01:12;21.10;99.90
20481;DHT22;10399;50.754;3.366;2023-09-19T15:03:41;21.10;99.90
20481;DHT22;10399;50.754;3.366;2023-09-19T15:06:10;21.10;99.90
20481;DHT22;10399;50.754;3.366;2023-09-19T15:08:47;21.00;99.90
20481;DHT22;10399;50.754;3.366;2023-09-19T15:11:16;21.00;99.90
20481;DHT22;10399;50.754;3.366;2023-09-19T15:13:45;21.10;99.90
20481;DHT22;10399;50.754;3.366;2023-09-19T15:16:13;21.00;99.90
20481;DHT22;10399;50.754;3.366;2023-09-19T15:18:42;20.90;99.90
20481;DHT22;10399;50.754;3.366;2023-09-19T15:21:11;20.80;99.90
20481;DHT22;10399;50.754;3.366;2023-09-19T15:23:40;20.80;99.90
20481;DHT22;10399;50.754;3.366;2023-09-19T15:26:11;20.80;99.90
20481;DHT22;10399;50.754;3.366;2023-09-19T15:28:38;20.70;99.90
20481;DHT22;10399;50.754;3.366;2023-09-19T15:31:11;20.60;99.90
20481;DHT22;10399;50.754;3.366;2023-09-19T15:33:40;20.50;99.90
20481;DHT22;10399;50.754;3.366;2023-09-19T15:36:12;20.50;99.90
20481;DHT22;10399;50.754;3.366;2023-09-19T15:41:25;20.70;99.90
20481;DHT22;10399;50.754;3.366;2023-09-19T15:43:54;20.60;99.90
20481;DHT22;10399;50.754;3.366;2023-09-19T15:46:22;20.50;99.90
20481;DHT22;10399;50.754;3.366;2023-09-19T15:48:49;20.30;99.90
20481;DHT22;10399;50.754;3.366;2023-09-19T15:51:17;20.20;99.90
20481;DHT22;10399;50.754;3.366;2023-09-19T15:53:45;20.00;99.90
20481;DHT22;10399;50.754;3.366;2023-09-19T15:56:14;20.00;99.90
20481;DHT22;10399;50.754;3.366;2023-09-19T15:58:44;19.80;99.90
20481;DHT22;10399;50.754;3.366;2023-09-19T16:01:12;19.90;99.90
20481;DHT22;10399;50.754;3.366;2023-09-19T16:03:45;19.90;99.90
20481;DHT22;10399;50.754;3.366;2023-09-19T16:06:15;19.70;99.90
20481;DHT22;10399;50.754;3.366;2023-09-19T16:08:43;19.70;99.90
20481;DHT22;10399;50.754;3.366;2023-09-19T16:11:11;19.80;99.90
20481;DHT22;10399;50.754;3.366;2023-09-19T16:13:38;19.70;99.90
20481;DHT22;10399;50.754;3.366;2023-09-19T16:16:07;19.70;99.90
20481;DHT22;10399;50.754;3.366;2023-09-19T16:18:35;19.80;99.90
20481;DHT22;10399;50.754;3.366;2023-09-19T16:21:06;19.70;99.90
20481;DHT22;10399;50.754;3.366;2023-09-19T16:23:37;19.80;99.90
20481;DHT22;10399;50.754;3.366;2023-09-19T16:26:05;19.60;99.90
20481;DHT22;10399;50.754;3.366;2023-09-19T16:28:34;19.50;99.90
20481;DHT22;10399;50.754;3.366;2023-09-19T16:31:04;19.50;99.90
20481;DHT22;10399;50.754;3.366;2023-09-19T16:33:36;19.40;99.90
20481;DHT22;10399;50.754;3.366;2023-09-19T16:36:10;19.50;99.90
20481;DHT22;10399;50.754;3.366;2023-09-19T16:38:38;19.40;99.90
20481;DHT22;10399;50.754;3.366;2023-09-19T16:41:07;19.40;99.90
20481;DHT22;10399;50.754;3.366;2023-09-19T16:43:35;19.20;99.90
20481;DHT22;10399;50.754;3.366;2023-09-19T16:46:08;19.20;99.90
20481;DHT22;10399;50.754;3.366;2023-09-19T16:48:39;19.10;99.90